createdAt,value
2022-12-11T00:03:53.952Z,88.66
2022-12-11T00:07:00.205Z,88.49
2022-12-11T00:10:38.033Z,87.30
2022-12-11T00:15:37.981Z,86.73
2022-12-11T00:16:56.759Z,87.84
2022-12-11T00:20:24.167Z,87.88
2022-12-11T00:22:58.206Z,87.74
2022-12-11T00:26:07.733Z,88.04
2022-12-11T00:29:47.260Z,88.33
2022-12-11T00:34:03.058Z,88.83
2022-12-11T00:36:34.204Z,87.86
2022-12-11T00:39:48.730Z,87.94
2022-12-11T00:46:14.287Z,89.20
2022-12-11T00:49:51.904Z,89.56
2022-12-11T00:52:58.944Z,89.57
2022-12-11T00:56:07.577Z,89.68
2022-12-11T00:59:01.614Z,90.29
2022-12-11T01:02:45.222Z,90.35
2022-12-11T01:06:05.989Z,90.11
2022-12-11T01:13:57.140Z,90.41
2022-12-11T01:16:49.049Z,91.03
2022-12-11T01:20:07.871Z,90.67
2022-12-11T01:26:58.062Z,90.44
2022-12-11T01:30:29.709Z,90.33
2022-12-11T01:37:10.206Z,91.08
2022-12-11T01:40:21.420Z,91.04
2022-12-11T01:43:08.869Z,91.43
2022-12-11T01:45:57.263Z,91.54
2022-12-11T01:52:03.196Z,91.46
2022-12-11T01:54:50.059Z,91.35
2022-12-11T01:57:52.078Z,91.51
2022-12-11T02:00:52.481Z,91.80
2022-12-11T02:04:13.139Z,91.95
2022-12-11T02:07:01.834Z,91.75
2022-12-11T02:09:42.050Z,91.56
2022-12-11T02:12:34.634Z,91.52
2022-12-11T02:15:26.492Z,91.52
2022-12-11T02:18:06.582Z,91.40
2022-12-11T02:21:10.138Z,91.55
2022-12-11T02:24:15.430Z,92.49
2022-12-11T02:27:19.144Z,93.30
2022-12-11T02:30:39.735Z,92.22
2022-12-11T02:33:27.219Z,92.25
2022-12-11T02:36:16.230Z,92.75
2022-12-11T02:39:42.907Z,92.56
2022-12-11T02:49:47.757Z,92.54
2022-12-11T03:17:12.634Z,93.33
2022-12-11T03:19:47.642Z,92.98
2022-12-11T03:22:58.840Z,93.16
2022-12-11T03:25:29.753Z,92.88
2022-12-11T03:28:29.177Z,92.88
2022-12-11T03:30:57.279Z,93.24
2022-12-11T03:33:29.646Z,93.03
2022-12-11T03:36:01.569Z,92.61
2022-12-11T03:38:37.358Z,92.77
2022-12-11T03:41:07.253Z,92.43
2022-12-11T03:43:35.710Z,92.48
2022-12-11T03:46:03.347Z,92.65
2022-12-11T03:48:38.119Z,92.93
2022-12-11T03:51:06.934Z,92.92
2022-12-11T03:53:38.442Z,93.11
2022-12-11T03:56:11.042Z,92.96
2022-12-11T03:58:38.788Z,93.01
2022-12-11T04:01:10.583Z,93.09
2022-12-11T04:03:39.663Z,93.01
2022-12-11T04:06:06.900Z,93.42
2022-12-11T04:08:33.845Z,94.55
2022-12-11T04:11:24.691Z,94.53
2022-12-11T04:14:11.457Z,94.64
2022-12-11T04:16:38.499Z,94.24
2022-12-11T04:19:25.864Z,94.39
2022-12-11T04:22:12.523Z,94.63
2022-12-11T04:24:40.707Z,93.76
2022-12-11T04:27:07.794Z,93.79
2022-12-11T04:29:34.902Z,94.15
2022-12-11T04:32:04.621Z,94.08
2022-12-11T04:34:33.951Z,94.29
2022-12-11T04:37:00.996Z,94.36
2022-12-11T04:39:28.053Z,94.40
2022-12-11T04:41:54.885Z,94.51
2022-12-11T04:44:23.092Z,94.76
2022-12-11T04:46:50.053Z,94.39
2022-12-11T04:49:17.029Z,94.74
2022-12-11T04:51:44.007Z,94.22
2022-12-11T04:54:10.801Z,94.40
2022-12-11T04:56:40.128Z,94.50
2022-12-11T04:59:06.969Z,94.27
2022-12-11T05:01:36.301Z,94.55
2022-12-11T05:04:03.233Z,94.11
2022-12-11T05:06:30.135Z,94.05
2022-12-11T05:08:57.034Z,94.31
2022-12-11T05:11:26.614Z,93.98
2022-12-11T05:13:53.540Z,94.01
2022-12-11T05:16:20.517Z,94.23
2022-12-11T05:18:50.189Z,94.31
2022-12-11T05:21:17.360Z,94.29
2022-12-11T05:23:44.644Z,94.21
2022-12-11T05:26:17.696Z,94.40
2022-12-11T05:28:45.481Z,94.34
2022-12-11T05:31:17.157Z,94.10
2022-12-11T05:33:45.308Z,94.20
2022-12-11T05:36:27.890Z,93.78
2022-12-11T05:38:55.202Z,93.99
2022-12-11T05:41:24.676Z,93.80
2022-12-11T05:43:52.213Z,93.69
2022-12-11T05:46:24.087Z,94.13
2022-12-11T05:48:58.206Z,94.16
2022-12-11T05:51:25.352Z,93.47
2022-12-11T05:54:00.515Z,93.81
2022-12-11T05:56:30.719Z,93.84
2022-12-11T05:58:59.130Z,93.73
2022-12-11T06:01:30.531Z,93.42
2022-12-11T06:03:59.675Z,93.32
2022-12-11T06:06:30.785Z,93.38
2022-12-11T06:08:59.143Z,93.53
2022-12-11T06:11:29.002Z,93.71
2022-12-11T06:13:56.568Z,93.67
2022-12-11T06:16:26.212Z,92.93
2022-12-11T06:18:58.406Z,92.65
2022-12-11T06:21:31.576Z,92.58
2022-12-11T06:24:05.423Z,92.65
2022-12-11T06:26:33.055Z,92.11
2022-12-11T06:29:07.562Z,92.10
2022-12-11T06:31:36.164Z,92.20
2022-12-11T06:34:03.284Z,92.65
2022-12-11T06:36:32.644Z,92.62
2022-12-11T06:39:03.032Z,92.92
2022-12-11T06:41:30.382Z,93.13
2022-12-11T06:43:59.742Z,93.40
2022-12-11T06:46:29.863Z,93.51
2022-12-11T06:48:57.009Z,93.65
2022-12-11T06:51:26.463Z,93.17
2022-12-11T06:53:55.531Z,92.84
2022-12-11T06:56:23.371Z,93.55
2022-12-11T06:59:02.877Z,92.95
2022-12-11T07:01:36.205Z,93.22
2022-12-11T07:04:05.527Z,93.42
2022-12-11T07:06:40.006Z,92.95
2022-12-11T07:09:08.879Z,92.62
2022-12-11T07:11:36.023Z,92.88
2022-12-11T07:14:03.491Z,93.35
2022-12-11T07:16:30.989Z,92.97
2022-12-11T07:18:58.088Z,92.54
2022-12-11T07:21:25.236Z,92.54
2022-12-11T07:23:54.608Z,92.67
2022-12-11T07:26:32.464Z,92.41
2022-12-11T07:29:00.382Z,92.30
2022-12-11T07:31:34.287Z,91.96
2022-12-11T07:34:06.939Z,91.24
2022-12-11T07:36:35.088Z,91.65
2022-12-11T07:39:03.556Z,91.55
2022-12-11T07:41:31.841Z,91.55
2022-12-11T07:44:01.378Z,92.00
2022-12-11T07:46:33.054Z,90.90
2022-12-11T07:49:01.069Z,91.49
2022-12-11T07:51:36.216Z,90.23
2022-12-11T07:54:18.237Z,90.54
2022-12-11T07:56:53.530Z,90.87
2022-12-11T07:59:23.626Z,90.23
2022-12-11T08:01:55.160Z,89.62
2022-12-11T08:04:26.074Z,89.97
2022-12-11T08:06:59.245Z,89.55
2022-12-11T08:09:29.167Z,90.29
2022-12-11T08:12:01.290Z,90.27
2022-12-11T08:14:28.424Z,90.29
2022-12-11T08:17:03.163Z,89.57
2022-12-11T08:19:32.510Z,89.37
2022-12-11T08:22:02.582Z,89.06
2022-12-11T08:24:32.593Z,89.70
2022-12-11T08:27:02.102Z,89.50
2022-12-11T08:29:28.983Z,90.08
2022-12-11T08:31:58.651Z,89.82
2022-12-11T08:34:26.836Z,89.27
2022-12-11T08:36:55.889Z,88.25
2022-12-11T08:39:22.977Z,88.41
2022-12-11T08:42:03.756Z,88.67
2022-12-11T08:44:43.413Z,86.95
2022-12-11T08:47:15.564Z,87.95
2022-12-11T08:49:45.018Z,88.58
2022-12-11T08:52:17.435Z,88.55
2022-12-11T08:54:54.556Z,87.82
2022-12-11T08:57:28.327Z,88.27
2022-12-11T08:59:55.314Z,86.95
2022-12-11T09:02:28.034Z,87.16
2022-12-11T09:05:00.006Z,87.90
2022-12-11T09:07:32.519Z,88.02
2022-12-11T09:10:00.085Z,87.75
2022-12-11T09:12:29.688Z,87.88
2022-12-11T09:14:57.096Z,87.42
2022-12-11T09:17:32.564Z,87.13
2022-12-11T09:20:03.322Z,86.90
2022-12-11T09:22:50.832Z,86.01
2022-12-11T09:25:26.708Z,86.06
2022-12-11T09:28:02.336Z,85.92
2022-12-11T09:30:34.194Z,85.75
2022-12-11T09:33:01.435Z,86.08
2022-12-11T09:35:38.397Z,85.39
2022-12-11T09:38:14.020Z,86.21
2022-12-11T09:40:46.399Z,85.58
2022-12-11T09:43:37.895Z,85.35
2022-12-11T09:46:10.719Z,83.39
2022-12-11T09:48:46.794Z,82.44
2022-12-11T09:51:22.542Z,82.66
2022-12-11T09:53:50.522Z,82.34
2022-12-11T09:56:40.683Z,83.35
2022-12-11T09:59:32.353Z,82.36
2022-12-11T10:02:29.324Z,81.13
2022-12-11T10:05:23.719Z,82.61
2022-12-11T10:08:24.168Z,81.02
2022-12-11T10:11:22.843Z,81.41
2022-12-11T10:14:06.484Z,80.80
2022-12-11T10:16:44.106Z,81.50
2022-12-11T10:19:30.403Z,79.06
2022-12-11T10:22:18.062Z,80.79
2022-12-11T10:25:12.355Z,80.41
2022-12-11T10:27:43.436Z,81.73
2022-12-11T10:30:24.863Z,80.43
2022-12-11T10:33:22.131Z,81.01
2022-12-11T10:35:59.168Z,82.35
2022-12-11T10:38:48.919Z,81.47
2022-12-11T10:41:33.660Z,81.84
2022-12-11T10:44:01.980Z,81.73
2022-12-11T10:46:30.114Z,82.51
2022-12-11T10:49:01.130Z,83.27
2022-12-11T10:51:39.875Z,82.60
2022-12-11T10:54:34.850Z,82.61
2022-12-11T10:57:10.971Z,82.27
2022-12-11T10:59:50.509Z,82.70
2022-12-11T11:02:37.877Z,82.28
2022-12-11T11:05:49.121Z,82.58
2022-12-11T11:08:32.230Z,83.15
2022-12-11T11:11:05.717Z,82.52
2022-12-11T11:13:36.612Z,81.76
2022-12-11T11:16:15.647Z,83.58
2022-12-11T11:19:00.503Z,82.62
2022-12-11T11:21:30.155Z,82.00
2022-12-11T11:24:02.346Z,82.53
2022-12-11T11:27:04.471Z,82.54
2022-12-11T11:29:53.097Z,83.08
2022-12-11T11:32:32.470Z,83.24
2022-12-11T11:35:17.212Z,83.16
2022-12-11T11:37:56.464Z,81.92
2022-12-11T11:40:31.209Z,82.21
2022-12-11T11:43:34.400Z,82.63
2022-12-11T11:46:11.197Z,83.78
2022-12-11T11:48:48.595Z,83.44
2022-12-11T11:51:44.747Z,83.38
2022-12-11T11:54:45.278Z,82.63
2022-12-11T11:57:41.931Z,82.96
2022-12-11T12:00:37.407Z,82.78
2022-12-11T12:03:19.993Z,82.76
2022-12-11T12:06:10.889Z,80.78
2022-12-11T12:08:58.854Z,80.77
2022-12-11T12:11:52.362Z,79.74
2022-12-11T12:14:51.154Z,78.16
2022-12-11T12:17:36.442Z,79.73
2022-12-11T12:20:30.096Z,78.12
2022-12-11T12:23:27.400Z,78.58
2022-12-11T12:26:12.735Z,76.36
2022-12-11T12:29:16.192Z,76.97
2022-12-11T12:32:20.015Z,78.17
2022-12-11T12:35:25.586Z,78.15
2022-12-11T12:38:12.013Z,77.90
2022-12-11T12:41:21.344Z,76.51
2022-12-11T12:44:16.529Z,77.19
2022-12-11T12:46:57.192Z,77.80
2022-12-11T12:49:46.161Z,76.54
2022-12-11T12:52:35.941Z,78.13
2022-12-11T12:55:29.080Z,78.89
2022-12-11T12:58:24.026Z,78.64
2022-12-11T13:01:20.572Z,77.36
2022-12-11T13:04:54.981Z,74.56
2022-12-11T13:07:34.035Z,76.75
2022-12-11T13:10:04.585Z,76.41
2022-12-11T13:12:47.457Z,74.92
2022-12-11T13:15:33.283Z,74.69
2022-12-11T13:18:12.916Z,74.41
2022-12-11T13:20:48.309Z,75.33
2022-12-11T13:23:37.538Z,73.44
2022-12-11T13:26:12.895Z,75.02
2022-12-11T13:28:42.916Z,74.58
2022-12-11T13:31:18.496Z,75.41
2022-12-11T13:34:03.116Z,76.04
2022-12-11T13:36:40.229Z,76.95
2022-12-11T13:39:32.468Z,75.15
2022-12-11T13:42:07.724Z,76.73
2022-12-11T13:44:43.361Z,76.70
2022-12-11T13:47:27.008Z,75.92
2022-12-11T13:50:22.157Z,76.75
2022-12-11T13:53:03.525Z,77.33
2022-12-11T13:55:42.552Z,77.78
2022-12-11T13:58:43.682Z,76.82
2022-12-11T14:01:26.293Z,77.87
2022-12-11T14:04:50.120Z,77.99
2022-12-11T14:07:31.610Z,77.81
2022-12-11T14:10:10.118Z,77.07
2022-12-11T14:12:37.890Z,77.66
2022-12-11T14:15:20.599Z,77.36
2022-12-11T14:21:09.705Z,77.81
2022-12-11T14:24:14.087Z,77.67
2022-12-11T14:26:57.318Z,74.73
2022-12-11T14:29:39.070Z,76.49
2022-12-11T14:32:29.646Z,76.28
2022-12-11T14:35:11.936Z,72.81
2022-12-11T14:37:52.658Z,74.00
2022-12-11T14:40:30.913Z,71.97
2022-12-11T14:43:35.659Z,73.77
2022-12-11T14:46:18.869Z,71.47
2022-12-11T14:49:01.549Z,72.18
2022-12-11T14:51:46.720Z,71.92
2022-12-11T14:54:44.624Z,71.11
2022-12-11T14:58:17.108Z,71.99
2022-12-11T15:01:30.623Z,70.63
2022-12-11T15:04:35.354Z,71.88
2022-12-11T15:08:15.753Z,72.87
2022-12-11T15:11:03.544Z,70.46
2022-12-11T15:13:39.586Z,71.75
2022-12-11T15:16:14.627Z,71.44
2022-12-11T15:19:17.601Z,73.49
2022-12-11T15:22:11.669Z,74.86
2022-12-11T15:24:49.050Z,76.31
2022-12-11T15:27:51.061Z,76.47
2022-12-11T15:30:17.892Z,77.30
2022-12-11T15:32:46.999Z,77.14
2022-12-11T15:36:02.125Z,77.97
2022-12-11T15:38:36.182Z,78.24
2022-12-11T15:41:06.896Z,78.45
2022-12-11T15:43:42.546Z,78.70
2022-12-11T15:46:39.510Z,79.15
2022-12-11T15:49:13.492Z,78.74
2022-12-11T15:51:43.347Z,78.97
2022-12-11T15:54:11.174Z,79.14
2022-12-11T15:56:38.325Z,79.34
2022-12-11T15:59:13.250Z,79.09
2022-12-11T16:01:46.007Z,79.38
2022-12-11T16:04:17.175Z,79.58
2022-12-11T16:06:46.577Z,79.60
2022-12-11T16:09:16.462Z,79.99
2022-12-11T16:11:44.373Z,80.09
2022-12-11T16:14:12.317Z,79.92
2022-12-11T16:16:41.991Z,80.73
2022-12-11T16:19:15.343Z,81.13
2022-12-11T16:22:07.617Z,81.50
2022-12-11T16:29:05.532Z,81.46
2022-12-11T16:31:50.259Z,81.61
2022-12-11T16:34:22.685Z,81.84
2022-12-11T16:36:53.675Z,81.53
2022-12-11T16:39:20.691Z,81.97
2022-12-11T16:42:40.031Z,81.31
2022-12-11T16:45:43.596Z,82.37
2022-12-11T16:48:48.468Z,82.45
2022-12-11T16:51:22.828Z,82.18
2022-12-11T16:54:09.071Z,82.16
2022-12-11T16:56:37.957Z,81.86
2022-12-11T16:59:07.504Z,82.42
2022-12-11T17:01:36.701Z,82.56
2022-12-11T17:04:03.470Z,82.49
2022-12-11T17:06:30.181Z,82.13
2022-12-11T17:08:57.064Z,81.90
2022-12-11T17:11:28.502Z,81.71
2022-12-11T17:13:59.208Z,81.74
2022-12-11T17:16:30.631Z,81.88
2022-12-11T17:19:02.635Z,81.71
2022-12-11T17:21:38.082Z,81.96
2022-12-11T17:24:05.207Z,82.01
2022-12-11T17:26:37.179Z,81.88
2022-12-11T17:29:07.022Z,81.85
2022-12-11T17:31:34.170Z,81.86
2022-12-11T17:34:06.647Z,81.61
2022-12-11T17:36:33.704Z,82.38
2022-12-11T17:39:01.123Z,82.89
2022-12-11T17:41:28.038Z,82.88
2022-12-11T17:43:55.684Z,82.65
2022-12-11T17:46:22.716Z,83.14
2022-12-11T17:48:49.623Z,82.71
2022-12-11T17:51:21.937Z,82.87
2022-12-11T17:53:51.212Z,83.37
2022-12-11T17:56:21.817Z,82.94
2022-12-11T17:58:51.257Z,82.72
2022-12-11T18:01:18.867Z,82.55
2022-12-11T18:03:46.979Z,82.52
2022-12-11T18:06:16.179Z,83.00
2022-12-11T18:08:44.400Z,83.36
2022-12-11T18:11:24.033Z,82.69
2022-12-11T18:13:53.565Z,82.73
2022-12-11T18:16:32.720Z,83.22
2022-12-11T18:18:59.504Z,83.06
2022-12-11T18:21:29.977Z,82.91
2022-12-11T18:23:56.749Z,83.37
2022-12-11T18:26:26.287Z,83.29
2022-12-11T18:29:08.639Z,83.90
2022-12-11T18:31:41.962Z,83.65
2022-12-11T18:34:10.598Z,85.06
2022-12-11T18:36:37.448Z,85.47
2022-12-11T18:39:06.743Z,84.59
2022-12-11T18:41:40.901Z,85.30
2022-12-11T18:44:10.397Z,85.47
2022-12-11T18:46:40.658Z,84.58
2022-12-11T18:49:13.062Z,85.00
2022-12-11T18:51:42.822Z,84.82
2022-12-11T18:54:10.268Z,85.98
2022-12-11T18:56:42.709Z,85.86
2022-12-11T18:59:18.340Z,84.91
2022-12-11T19:01:50.869Z,85.28
2022-12-11T19:04:26.166Z,85.89
2022-12-11T19:06:57.903Z,86.49
2022-12-11T19:09:24.887Z,86.27
2022-12-11T19:11:52.054Z,86.23
2022-12-11T19:14:21.464Z,85.35
2022-12-11T19:17:00.156Z,85.55
2022-12-11T19:19:29.397Z,85.28
2022-12-11T19:21:56.255Z,85.77
2022-12-11T19:24:24.281Z,86.08
2022-12-11T19:26:51.441Z,85.37
2022-12-11T19:29:35.548Z,86.52
2022-12-11T19:32:09.868Z,85.70
2022-12-11T19:34:38.572Z,85.75
2022-12-11T19:37:05.657Z,85.55
2022-12-11T19:39:33.157Z,86.06
2022-12-11T19:42:00.203Z,85.81
2022-12-11T19:44:27.301Z,85.42
2022-12-11T19:46:56.753Z,85.51
2022-12-11T19:49:23.943Z,85.97
2022-12-11T19:51:51.392Z,85.75
2022-12-11T19:54:18.445Z,85.35
2022-12-11T19:56:46.580Z,86.01
2022-12-11T19:59:17.924Z,85.33
2022-12-11T20:01:48.259Z,85.50
2022-12-11T20:04:17.241Z,85.75
2022-12-11T20:06:46.770Z,86.75
2022-12-11T20:09:17.056Z,86.75
2022-12-11T20:11:45.331Z,86.37
2022-12-11T20:14:23.936Z,86.18
2022-12-11T20:17:12.123Z,86.17
2022-12-11T20:19:43.110Z,86.07
2022-12-11T20:22:10.296Z,86.01
2022-12-11T20:24:37.740Z,86.99
2022-12-11T20:27:05.192Z,88.26
2022-12-11T20:29:32.582Z,87.15
2022-12-11T20:32:00.550Z,88.04
2022-12-11T20:34:27.907Z,87.16
2022-12-11T20:36:58.803Z,88.47
2022-12-11T20:39:26.597Z,87.56
2022-12-11T20:41:53.483Z,87.84
2022-12-11T20:44:20.479Z,87.34
2022-12-11T20:46:53.338Z,87.22
2022-12-11T20:49:22.572Z,87.76
2022-12-11T20:51:52.421Z,87.94
2022-12-11T20:54:19.398Z,88.55
2022-12-11T20:56:48.844Z,87.43
2022-12-11T20:59:15.619Z,87.58
2022-12-11T21:01:45.016Z,87.67
2022-12-11T21:04:12.236Z,87.47
2022-12-11T21:06:40.673Z,87.57
2022-12-11T21:09:20.023Z,87.39
2022-12-11T21:11:46.819Z,87.66
2022-12-11T21:14:14.963Z,89.23
2022-12-11T21:16:42.312Z,88.40
2022-12-11T21:19:16.496Z,88.38
2022-12-11T21:21:46.878Z,88.03
2022-12-11T21:24:20.297Z,88.67
2022-12-11T21:26:49.960Z,88.25
2022-12-11T21:29:18.124Z,88.15
2022-12-11T21:31:47.614Z,88.48
2022-12-11T21:34:14.603Z,89.24
2022-12-11T21:36:41.337Z,88.88
2022-12-11T21:39:12.469Z,88.99
2022-12-11T21:41:40.654Z,89.13
2022-12-11T21:46:59.321Z,88.26
2022-12-11T21:49:26.179Z,88.40
2022-12-11T21:51:52.889Z,88.22
2022-12-11T21:54:19.902Z,88.21
2022-12-11T21:56:47.088Z,88.11
2022-12-11T21:59:16.594Z,88.26
2022-12-11T22:01:48.251Z,88.01
2022-12-11T22:04:16.238Z,88.14
2022-12-11T22:06:43.807Z,87.85
2022-12-11T22:09:14.506Z,88.12
2022-12-11T22:11:42.518Z,88.45
2022-12-11T22:14:12.800Z,87.76
2022-12-11T22:16:40.998Z,88.11
2022-12-11T22:19:07.970Z,87.71
2022-12-11T22:21:34.983Z,87.72
2022-12-11T22:24:02.622Z,88.10
2022-12-11T22:26:29.880Z,88.60
2022-12-11T22:28:57.092Z,88.66
2022-12-11T22:31:25.951Z,88.27
2022-12-11T22:33:56.467Z,88.43
2022-12-11T22:36:26.077Z,88.83
2022-12-11T22:38:53.187Z,87.97
2022-12-11T22:41:22.603Z,86.77
2022-12-11T22:43:49.765Z,86.63
2022-12-11T22:46:25.738Z,86.21
2022-12-11T22:48:55.709Z,87.30
2022-12-11T22:51:25.432Z,86.89
2022-12-11T22:53:54.612Z,87.69
2022-12-11T22:56:21.331Z,86.97
2022-12-11T22:58:53.389Z,86.62
2022-12-11T23:01:22.786Z,86.80
2022-12-11T23:03:49.971Z,86.83
2022-12-11T23:06:22.578Z,86.97
2022-12-11T23:08:49.501Z,87.00
2022-12-11T23:11:17.849Z,86.98
2022-12-11T23:13:46.504Z,87.29
2022-12-11T23:16:13.345Z,87.44
2022-12-11T23:18:40.118Z,87.38
2022-12-11T23:21:07.822Z,87.54
2022-12-11T23:23:37.524Z,87.75
2022-12-11T23:26:05.667Z,87.68
2022-12-11T23:28:34.013Z,87.75
2022-12-11T23:31:03.494Z,87.61
2022-12-11T23:33:30.238Z,87.94
2022-12-11T23:36:03.842Z,88.18
2022-12-11T23:38:30.677Z,88.15
2022-12-11T23:40:59.993Z,87.98
2022-12-11T23:43:26.882Z,87.88
2022-12-11T23:45:53.727Z,88.65
2022-12-11T23:48:23.825Z,88.41
2022-12-11T23:50:50.782Z,88.41
2022-12-11T23:53:20.133Z,88.39
2022-12-11T23:55:47.048Z,88.40
2022-12-11T23:58:13.993Z,88.29
